sensor_id;sensor_type;location;lat;lon;timestamp;pressure;altitude;pressure_sealevel;temperature;humidity
3434;BME280;1730;41.932;25.548;2024-03-02T00:00:42;100443.69;;;10.25;100.00
3434;BME280;1730;41.932;25.548;2024-03-02T00:03:08;100461.56;;;10.37;100.00
3434;BME280;1730;41.932;25.548;2024-03-02T00:05:34;100443.94;;;10.22;100.00
3434;BME280;1730;41.932;25.548;2024-03-02T00:08:00;100438.78;;;10.08;100.00
3434;BME280;1730;41.932;25.548;2024-03-02T00:10:28;100412.09;;;9.82;100.00
3434;BME280;1730;41.932;25.548;2024-03-02T00:12:57;100490.69;;;10.10;100.00
3434;BME280;1730;41.932;25.548;2024-03-02T00:15:47;100485.81;;;10.04;100.00
3434;BME280;1730;41.932;25.548;2024-03-02T00:18:19;100521.87;;;10.25;100.00
3434;BME280;1730;41.932;25.548;2024-03-02T00:20:45;100516.47;;;10.25;100.00
3434;BME280;1730;41.932;25.548;2024-03-02T00:23:14;99962.16;;;7.01;100.00
3434;BME280;1730;41.932;25.548;2024-03-02T00:25:40;100362.13;;;9.45;100.00
3434;BME280;1730;41.932;25.548;2024-03-02T00:28:17;100485.72;;;10.16;100.00
3434;BME280;1730;41.932;25.548;2024-03-02T00:33:10;100458.63;;;9.84;100.00
3434;BME280;1730;41.932;25.548;2024-03-02T00:35:35;100471.56;;;9.57;100.00
3434;BME280;1730;41.932;25.548;2024-03-02T00:38:05;100332.56;;;8.77;100.00
3434;BME280;1730;41.932;25.548;2024-03-02T00:40:31;100551.97;;;10.08;100.00
3434;BME280;1730;41.932;25.548;2024-03-02T00:42:57;100380.03;;;9.00;100.00
3434;BME280;1730;41.932;25.548;2024-03-02T00:45:23;100510.66;;;9.85;100.00
3434;BME280;1730;41.932;25.548;2024-03-02T00:47:50;100414.00;;;9.25;100.00
3434;BME280;1730;41.932;25.548;2024-03-02T00:50:16;100410.28;;;9.15;100.00
3434;BME280;1730;41.932;25.548;2024-03-02T00:52:42;100400.03;;;9.20;100.00
3434;BME280;1730;41.932;25.548;2024-03-02T00:55:08;100433.09;;;9.33;100.00
3434;BME280;1730;41.932;25.548;2024-03-02T00:57:35;100444.50;;;9.47;100.00
3434;BME280;1730;41.932;25.548;2024-03-02T01:00:00;100558.38;;;10.29;100.00
3434;BME280;1730;41.932;25.548;2024-03-02T01:02:26;100328.22;;;8.98;100.00
3434;BME280;1730;41.932;25.548;2024-03-02T01:04:52;100538.16;;;10.34;100.00
3434;BME280;1730;41.932;25.548;2024-03-02T01:07:17;100511.81;;;10.27;100.00
3434;BME280;1730;41.932;25.548;2024-03-02T01:09:43;100416.25;;;9.75;100.00
3434;BME280;1730;41.932;25.548;2024-03-02T01:12:10;100481.16;;;10.06;100.00
3434;BME280;1730;41.932;25.548;2024-03-02T01:14:35;100354.03;;;9.23;100.00
3434;BME280;1730;41.932;25.548;2024-03-02T01:17:01;100404.13;;;9.47;100.00
3434;BME280;1730;41.932;25.548;2024-03-02T01:19:29;100528.97;;;10.26;100.00
3434;BME280;1730;41.932;25.548;2024-03-02T01:21:56;100523.09;;;10.21;100.00
3434;BME280;1730;41.932;25.548;2024-03-02T01:24:22;100520.00;;;10.03;100.00
3434;BME280;1730;41.932;25.548;2024-03-02T01:26:47;100388.66;;;9.27;100.00
3434;BME280;1730;41.932;25.548;2024-03-02T01:29:13;100535.28;;;9.91;100.00
3434;BME280;1730;41.932;25.548;2024-03-02T01:31:38;100525.81;;;9.75;100.00
3434;BME280;1730;41.932;25.548;2024-03-02T01:34:07;100240.25;;;7.95;100.00
3434;BME280;1730;41.932;25.548;2024-03-02T01:36:32;100572.59;;;9.74;100.00
3434;BME280;1730;41.932;25.548;2024-03-02T01:38:58;100297.56;;;8.07;100.00
3434;BME280;1730;41.932;25.548;2024-03-02T01:41:23;100486.31;;;9.05;100.00
3434;BME280;1730;41.932;25.548;2024-03-02T01:43:49;100449.44;;;8.84;100.00
3434;BME280;1730;41.932;25.548;2024-03-02T01:46:15;100503.50;;;9.16;100.00
3434;BME280;1730;41.932;25.548;2024-03-02T01:48:40;100458.94;;;8.77;100.00
3434;BME280;1730;41.932;25.548;2024-03-02T01:51:06;100633.97;;;9.58;100.00
3434;BME280;1730;41.932;25.548;2024-03-02T01:53:32;100648.47;;;9.68;100.00
3434;BME280;1730;41.932;25.548;2024-03-02T01:55:58;100691.56;;;9.91;100.00
3434;BME280;1730;41.932;25.548;2024-03-02T01:58:24;100696.78;;;9.82;100.00
3434;BME280;1730;41.932;25.548;2024-03-02T02:00:50;100616.44;;;9.28;100.00
3434;BME280;1730;41.932;25.548;2024-03-02T02:03:16;100318.47;;;7.42;100.00
3434;BME280;1730;41.932;25.548;2024-03-02T02:05:42;100723.78;;;9.69;100.00
3434;BME280;1730;41.932;25.548;2024-03-02T02:08:08;100756.06;;;9.93;100.00
3434;BME280;1730;41.932;25.548;2024-03-02T02:10:33;100759.00;;;9.90;100.00
3434;BME280;1730;41.932;25.548;2024-03-02T02:12:59;100755.56;;;9.88;100.00
3434;BME280;1730;41.932;25.548;2024-03-02T02:15:27;100797.78;;;9.87;100.00
3434;BME280;1730;41.932;25.548;2024-03-02T02:17:54;100775.09;;;9.79;100.00
3434;BME280;1730;41.932;25.548;2024-03-02T02:20:20;100762.28;;;9.82;100.00
3434;BME280;1730;41.932;25.548;2024-03-02T02:22:58;100566.53;;;8.64;100.00
3434;BME280;1730;41.932;25.548;2024-03-02T02:25:24;100813.22;;;10.09;100.00
3434;BME280;1730;41.932;25.548;2024-03-02T02:27:49;100809.72;;;10.32;100.00
3434;BME280;1730;41.932;25.548;2024-03-02T02:30:26;100803.25;;;10.35;100.00
3434;BME280;1730;41.932;25.548;2024-03-02T02:32:53;100640.03;;;9.48;100.00
3434;BME280;1730;41.932;25.548;2024-03-02T02:35:20;100738.59;;;9.99;100.00
3434;BME280;1730;41.932;25.548;2024-03-02T02:37:47;100748.03;;;10.17;100.00
3434;BME280;1730;41.932;25.548;2024-03-02T02:40:13;100758.31;;;10.23;100.00
3434;BME280;1730;41.932;25.548;2024-03-02T02:42:39;100622.75;;;9.40;100.00
3434;BME280;1730;41.932;25.548;2024-03-02T02:45:05;100754.38;;;10.16;100.00
3434;BME280;1730;41.932;25.548;2024-03-02T02:47:31;100683.66;;;9.77;100.00
3434;BME280;1730;41.932;25.548;2024-03-02T02:50:01;100524.72;;;8.84;100.00
3434;BME280;1730;41.932;25.548;2024-03-02T02:52:32;100728.50;;;10.13;100.00
3434;BME280;1730;41.932;25.548;2024-03-02T02:54:59;100700.25;;;9.95;100.00
3434;BME280;1730;41.932;25.548;2024-03-02T02:57:24;100681.03;;;10.00;100.00
3434;BME280;1730;41.932;25.548;2024-03-02T02:59:50;100550.28;;;9.26;100.00
3434;BME280;1730;41.932;25.548;2024-03-02T03:02:15;100359.00;;;8.11;100.00
3434;BME280;1730;41.932;25.548;2024-03-02T03:04:41;100598.78;;;9.48;100.00
3434;BME280;1730;41.932;25.548;2024-03-02T03:07:07;100706.09;;;9.89;100.00
3434;BME280;1730;41.932;25.548;2024-03-02T03:09:32;100498.81;;;8.83;100.00
3434;BME280;1730;41.932;25.548;2024-03-02T03:11:58;100209.34;;;6.93;100.00
3434;BME280;1730;41.932;25.548;2024-03-02T03:14:23;100569.09;;;9.02;100.00
3434;BME280;1730;41.932;25.548;2024-03-02T03:16:49;100692.28;;;9.70;100.00
3434;BME280;1730;41.932;25.548;2024-03-02T03:19:15;100661.91;;;9.20;100.00
3434;BME280;1730;41.932;25.548;2024-03-02T03:21:41;100759.94;;;9.78;100.00
3434;BME280;1730;41.932;25.548;2024-03-02T03:24:06;100788.88;;;10.11;100.00
3434;BME280;1730;41.932;25.548;2024-03-02T03:26:32;100767.62;;;9.95;100.00
3434;BME280;1730;41.932;25.548;2024-03-02T03:28:57;100603.50;;;8.86;100.00
3434;BME280;1730;41.932;25.548;2024-03-02T03:31:23;100767.00;;;9.91;100.00
3434;BME280;1730;41.932;25.548;2024-03-02T03:33:49;100777.41;;;9.96;100.00
3434;BME280;1730;41.932;25.548;2024-03-02T03:36:15;100618.91;;;9.08;100.00
3434;BME280;1730;41.932;25.548;2024-03-02T03:38:41;100777.28;;;9.74;100.00
3434;BME280;1730;41.932;25.548;2024-03-02T03:41:06;100594.16;;;8.66;100.00
3434;BME280;1730;41.932;25.548;2024-03-02T03:43:32;100833.53;;;9.78;100.00
3434;BME280;1730;41.932;25.548;2024-03-02T03:45:57;100741.13;;;9.29;100.00
3434;BME280;1730;41.932;25.548;2024-03-02T03:48:23;100611.72;;;8.34;100.00
3434;BME280;1730;41.932;25.548;2024-03-02T03:50:48;100818.06;;;9.44;100.00
3434;BME280;1730;41.932;25.548;2024-03-02T03:53:14;100740.62;;;8.98;100.00
3434;BME280;1730;41.932;25.548;2024-03-02T03:55:40;100537.03;;;7.88;100.00
3434;BME280;1730;41.932;25.548;2024-03-02T03:58:05;100868.72;;;9.88;100.00
3434;BME280;1730;41.932;25.548;2024-03-02T04:00:31;100731.34;;;9.15;100.00
3434;BME280;1730;41.932;25.548;2024-03-02T04:02:56;100859.44;;;9.92;100.00
3434;BME280;1730;41.932;25.548;2024-03-02T04:05:22;100867.59;;;10.03;100.00
3434;BME280;1730;41.932;25.548;2024-03-02T04:07:47;100482.47;;;7.75;100.00
3434;BME280;1730;41.932;25.548;2024-03-02T04:10:13;100492.91;;;7.80;100.00
3434;BME280;1730;41.932;25.548;2024-03-02T04:12:38;100837.37;;;9.74;100.00
3434;BME280;1730;41.932;25.548;2024-03-02T04:15:05;100476.25;;;7.37;100.00
3434;BME280;1730;41.932;25.548;2024-03-02T04:17:32;100884.16;;;9.73;100.00
3434;BME280;1730;41.932;25.548;2024-03-02T04:19:59;100914.53;;;9.75;100.00
3434;BME280;1730;41.932;25.548;2024-03-02T04:22:26;100929.28;;;9.95;100.00
3434;BME280;1730;41.932;25.548;2024-03-02T04:24:52;100946.50;;;9.92;100.00
3434;BME280;1730;41.932;25.548;2024-03-02T04:27:17;100756.16;;;8.95;100.00
3434;BME280;1730;41.932;25.548;2024-03-02T04:29:43;100629.75;;;8.06;100.00
3434;BME280;1730;41.932;25.548;2024-03-02T04:32:08;100931.03;;;9.58;100.00
3434;BME280;1730;41.932;25.548;2024-03-02T04:34:34;100614.44;;;7.82;100.00
3434;BME280;1730;41.932;25.548;2024-03-02T04:37:00;100951.38;;;9.75;100.00
3434;BME280;1730;41.932;25.548;2024-03-02T04:39:26;100968.94;;;9.80;100.00
3434;BME280;1730;41.932;25.548;2024-03-02T04:41:52;100785.59;;;8.71;100.00
3434;BME280;1730;41.932;25.548;2024-03-02T04:44:17;101004.19;;;9.90;100.00
3434;BME280;1730;41.932;25.548;2024-03-02T04:46:43;101011.94;;;9.82;100.00
3434;BME280;1730;41.932;25.548;2024-03-02T04:49:08;100857.06;;;9.13;100.00
3434;BME280;1730;41.932;25.548;2024-03-02T04:51:34;100888.19;;;9.30;100.00
3434;BME280;1730;41.932;25.548;2024-03-02T04:53:59;101006.00;;;9.89;100.00
3434;BME280;1730;41.932;25.548;2024-03-02T04:56:25;101024.78;;;10.04;100.00
3434;BME280;1730;41.932;25.548;2024-03-02T04:58:56;100958.81;;;9.71;100.00
3434;BME280;1730;41.932;25.548;2024-03-02T05:01:22;100816.91;;;8.85;100.00
3434;BME280;1730;41.932;25.548;2024-03-02T05:03:47;101020.56;;;10.12;100.00
3434;BME280;1730;41.932;25.548;2024-03-02T05:06:13;100978.84;;;9.80;100.00
3434;BME280;1730;41.932;25.548;2024-03-02T05:08:38;101014.84;;;10.29;100.00
3434;BME280;1730;41.932;25.548;2024-03-02T05:11:04;100723.22;;;8.41;100.00
3434;BME280;1730;41.932;25.548;2024-03-02T05:13:49;100858.03;;;9.12;100.00
3434;BME280;1730;41.932;25.548;2024-03-02T05:16:15;100835.97;;;9.07;100.00
3434;BME280;1730;41.932;25.548;2024-03-02T05:18:40;100747.72;;;8.49;100.00
3434;BME280;1730;41.932;25.548;2024-03-02T05:21:06;100969.81;;;9.81;100.00
3434;BME280;1730;41.932;25.548;2024-03-02T05:23:32;100724.94;;;8.54;100.00
3434;BME280;1730;41.932;25.548;2024-03-02T05:25:57;100803.56;;;9.09;100.00
3434;BME280;1730;41.932;25.548;2024-03-02T05:28:23;100988.31;;;10.23;100.00
3434;BME280;1730;41.932;25.548;2024-03-02T05:30:48;100971.50;;;10.07;100.00
3434;BME280;1730;41.932;25.548;2024-03-02T05:33:14;100858.88;;;9.50;100.00
3434;BME280;1730;41.932;25.548;2024-03-02T05:35:40;100987.25;;;10.13;100.00
3434;BME280;1730;41.932;25.548;2024-03-02T05:38:06;100999.84;;;10.38;100.00
3434;BME280;1730;41.932;25.548;2024-03-02T05:40:31;100907.94;;;9.79;100.00
3434;BME280;1730;41.932;25.548;2024-03-02T05:42:58;100923.66;;;9.98;100.00
3434;BME280;1730;41.932;25.548;2024-03-02T05:45:24;100983.22;;;10.31;100.00
3434;BME280;1730;41.932;25.548;2024-03-02T05:47:49;100853.72;;;9.60;100.00
3434;BME280;1730;41.932;25.548;2024-03-02T05:50:15;100615.06;;;8.37;100.00
3434;BME280;1730;41.932;25.548;2024-03-02T05:52:40;100510.81;;;7.54;100.00
3434;BME280;1730;41.932;25.548;2024-03-02T05:55:06;100664.84;;;8.55;100.00
3434;BME280;1730;41.932;25.548;2024-03-02T05:57:31;100808.94;;;9.34;100.00
3434;BME280;1730;41.932;25.548;2024-03-02T06:00:13;100978.50;;;10.35;100.00
3434;BME280;1730;41.932;25.548;2024-03-02T06:02:41;100519.63;;;7.81;100.00
3434;BME280;1730;41.932;25.548;2024-03-02T06:05:07;100846.16;;;9.65;100.00
3434;BME280;1730;41.932;25.548;2024-03-02T06:07:32;100634.59;;;8.52;100.00
3434;BME280;1730;41.932;25.548;2024-03-02T06:09:58;100976.28;;;10.53;100.00
3434;BME280;1730;41.932;25.548;2024-03-02T06:12:25;100892.38;;;10.45;100.00
3434;BME280;1730;41.932;25.548;2024-03-02T06:14:51;100826.47;;;9.88;100.00
3434;BME280;1730;41.932;25.548;2024-03-02T06:17:16;100752.78;;;9.53;100.00
3434;BME280;1730;41.932;25.548;2024-03-02T06:19:42;100528.31;;;8.35;100.00
3434;BME280;1730;41.932;25.548;2024-03-02T06:22:08;100869.44;;;10.39;100.00
3434;BME280;1730;41.932;25.548;2024-03-02T06:24:36;100603.69;;;8.83;100.00
3434;BME280;1730;41.932;25.548;2024-03-02T06:27:02;100714.13;;;9.54;100.00
3434;BME280;1730;41.932;25.548;2024-03-02T06:29:28;100600.00;;;8.96;100.00
3434;BME280;1730;41.932;25.548;2024-03-02T06:31:53;100262.22;;;6.78;100.00
3434;BME280;1730;41.932;25.548;2024-03-02T06:34:19;100791.16;;;10.17;100.00
3434;BME280;1730;41.932;25.548;2024-03-02T06:36:44;100824.75;;;10.24;100.00
3434;BME280;1730;41.932;25.548;2024-03-02T06:39:10;100832.81;;;10.48;100.00
3434;BME280;1730;41.932;25.548;2024-03-02T06:41:35;100842.91;;;10.57;100.00
3434;BME280;1730;41.932;25.548;2024-03-02T06:44:01;100755.66;;;10.10;100.00
3434;BME280;1730;41.932;25.548;2024-03-02T06:46:26;100666.09;;;9.72;100.00
3434;BME280;1730;41.932;25.548;2024-03-02T06:48:53;100489.50;;;8.76;100.00
3434;BME280;1730;41.932;25.548;2024-03-02T06:51:20;100726.41;;;10.40;100.00
3434;BME280;1730;41.932;25.548;2024-03-02T06:53:45;100764.00;;;10.66;100.00
3434;BME280;1730;41.932;25.548;2024-03-02T06:56:12;100737.63;;;10.69;100.00
3434;BME280;1730;41.932;25.548;2024-03-02T06:58:37;100587.84;;;10.08;100.00
3434;BME280;1730;41.932;25.548;2024-03-02T07:01:03;100694.25;;;10.83;100.00
3434;BME280;1730;41.932;25.548;2024-03-02T07:03:28;100672.50;;;10.85;100.00
3434;BME280;1730;41.932;25.548;2024-03-02T07:05:54;100439.03;;;9.60;100.00
3434;BME280;1730;41.932;25.548;2024-03-02T07:08:19;100653.00;;;10.93;100.00
3434;BME280;1730;41.932;25.548;2024-03-02T07:10:45;100612.19;;;10.75;100.00
3434;BME280;1730;41.932;25.548;2024-03-02T07:13:12;100604.09;;;10.75;100.00
3434;BME280;1730;41.932;25.548;2024-03-02T07:15:38;100585.47;;;10.61;100.00
3434;BME280;1730;41.932;25.548;2024-03-02T07:18:22;100574.53;;;10.62;100.00
3434;BME280;1730;41.932;25.548;2024-03-02T07:20:50;100581.66;;;10.74;100.00
3434;BME280;1730;41.932;25.548;2024-03-02T07:23:26;100404.97;;;9.70;100.00
3434;BME280;1730;41.932;25.548;2024-03-02T07:25:53;100594.09;;;11.09;100.00
3434;BME280;1730;41.932;25.548;2024-03-02T07:28:25;100502.75;;;10.39;100.00
3434;BME280;1730;41.932;25.548;2024-03-02T07:31:04;100301.34;;;9.42;100.00
3434;BME280;1730;41.932;25.548;2024-03-02T07:33:30;100375.72;;;9.99;100.00
3434;BME280;1730;41.932;25.548;2024-03-02T07:35:57;100447.22;;;10.48;100.00
3434;BME280;1730;41.932;25.548;2024-03-02T07:38:26;100539.50;;;11.37;100.00
3434;BME280;1730;41.932;25.548;2024-03-02T07:40:52;100514.84;;;11.10;100.00
3434;BME280;1730;41.932;25.548;2024-03-02T07:43:19;100279.53;;;10.22;100.00
3434;BME280;1730;41.932;25.548;2024-03-02T07:45:45;100418.00;;;10.96;100.00
3434;BME280;1730;41.932;25.548;2024-03-02T07:48:10;100254.94;;;10.15;100.00
3434;BME280;1730;41.932;25.548;2024-03-02T07:50:36;100113.31;;;9.27;100.00
3434;BME280;1730;41.932;25.548;2024-03-02T07:53:03;100283.41;;;10.29;100.00
3434;BME280;1730;41.932;25.548;2024-03-02T07:55:29;100417.53;;;11.32;100.00
3434;BME280;1730;41.932;25.548;2024-03-02T07:57:55;100390.38;;;11.54;100.00
3434;BME280;1730;41.932;25.548;2024-03-02T08:00:22;100323.84;;;11.23;100.00
3434;BME280;1730;41.932;25.548;2024-03-02T08:02:50;100199.63;;;10.83;100.00
3434;BME280;1730;41.932;25.548;2024-03-02T08:05:19;100341.22;;;11.91;100.00
3434;BME280;1730;41.932;25.548;2024-03-02T08:07:45;100298.09;;;11.89;100.00
3434;BME280;1730;41.932;25.548;2024-03-02T08:10:11;100220.34;;;11.43;100.00
3434;BME280;1730;41.932;25.548;2024-03-02T08:13:03;100176.97;;;11.35;100.00
3434;BME280;1730;41.932;25.548;2024-03-02T08:15:35;99992.87;;;10.32;100.00
3434;BME280;1730;41.932;25.548;2024-03-02T08:18:01;100208.34;;;11.76;100.00
3434;BME280;1730;41.932;25.548;2024-03-02T08:20:26;100139.34;;;11.62;100.00
3434;BME280;1730;41.932;25.548;2024-03-02T08:22:52;100017.03;;;10.83;100.00
3434;BME280;1730;41.932;25.548;2024-03-02T08:25:21;100172.81;;;12.00;100.00
3434;BME280;1730;41.932;25.548;2024-03-02T08:27:47;100087.03;;;11.83;100.00
3434;BME280;1730;41.932;25.548;2024-03-02T08:30:13;100088.69;;;12.22;100.00
3434;BME280;1730;41.932;25.548;2024-03-02T08:32:41;99935.62;;;11.55;100.00
3434;BME280;1730;41.932;25.548;2024-03-02T08:35:07;99971.56;;;11.85;100.00
3434;BME280;1730;41.932;25.548;2024-03-02T08:37:33;99956.88;;;11.97;100.00
3434;BME280;1730;41.932;25.548;2024-03-02T08:39:58;99809.78;;;11.25;100.00
3434;BME280;1730;41.932;25.548;2024-03-02T08:42:24;99932.81;;;12.03;100.00
3434;BME280;1730;41.932;25.548;2024-03-02T08:44:51;99786.84;;;10.93;100.00
3434;BME280;1730;41.932;25.548;2024-03-02T08:47:41;99931.16;;;11.93;100.00
3434;BME280;1730;41.932;25.548;2024-03-02T08:50:12;99803.16;;;11.57;100.00
3434;BME280;1730;41.932;25.548;2024-03-02T08:52:38;99884.75;;;12.25;100.00
3434;BME280;1730;41.932;25.548;2024-03-02T08:55:04;99761.94;;;11.18;100.00
3434;BME280;1730;41.932;25.548;2024-03-02T08:57:30;99894.00;;;11.95;100.00
3434;BME280;1730;41.932;25.548;2024-03-02T08:59:56;99902.22;;;12.30;100.00
3434;BME280;1730;41.932;25.548;2024-03-02T09:02:22;99890.75;;;12.46;100.00
3434;BME280;1730;41.932;25.548;2024-03-02T09:04:49;99844.06;;;12.79;100.00
3434;BME280;1730;41.932;25.548;2024-03-02T09:07:15;99573.78;;;11.63;100.00
3434;BME280;1730;41.932;25.548;2024-03-02T09:09:41;99723.56;;;12.67;100.00
3434;BME280;1730;41.932;25.548;2024-03-02T09:12:07;99400.44;;;10.81;100.00
3434;BME280;1730;41.932;25.548;2024-03-02T09:14:33;99569.19;;;11.91;100.00
3434;BME280;1730;41.932;25.548;2024-03-02T09:16:59;99702.88;;;12.84;100.00
3434;BME280;1730;41.932;25.548;2024-03-02T09:19:24;99661.62;;;12.64;100.00
3434;BME280;1730;41.932;25.548;2024-03-02T09:21:50;99661.44;;;12.57;100.00
3434;BME280;1730;41.932;25.548;2024-03-02T09:24:16;99640.06;;;12.72;100.00
3434;BME280;1730;41.932;25.548;2024-03-02T09:26:42;99486.22;;;11.84;100.00
3434;BME280;1730;41.932;25.548;2024-03-02T09:29:08;99693.69;;;13.02;100.00
3434;BME280;1730;41.932;25.548;2024-03-02T09:31:42;99664.84;;;12.85;100.00
3434;BME280;1730;41.932;25.548;2024-03-02T09:34:08;99686.56;;;13.01;100.00
3434;BME280;1730;41.932;25.548;2024-03-02T09:36:33;99562.69;;;12.28;100.00
3434;BME280;1730;41.932;25.548;2024-03-02T09:38:59;99541.13;;;12.10;100.00
3434;BME280;1730;41.932;25.548;2024-03-02T09:41:24;99710.16;;;12.83;100.00
3434;BME280;1730;41.932;25.548;2024-03-02T09:43:50;99751.94;;;12.63;100.00
3434;BME280;1730;41.932;25.548;2024-03-02T09:46:16;99763.91;;;12.07;100.00
3434;BME280;1730;41.932;25.548;2024-03-02T09:48:44;99860.16;;;11.91;100.00
3434;BME280;1730;41.932;25.548;2024-03-02T09:51:11;99748.50;;;10.99;100.00
3434;BME280;1730;41.932;25.548;2024-03-02T09:53:37;99850.81;;;11.39;100.00
3434;BME280;1730;41.932;25.548;2024-03-02T09:56:02;100062.12;;;12.54;100.00
3434;BME280;1730;41.932;25.548;2024-03-02T09:58:29;99746.06;;;10.39;100.00
3434;BME280;1730;41.932;25.548;2024-03-02T10:00:54;100094.94;;;12.32;100.00
3434;BME280;1730;41.932;25.548;2024-03-02T10:03:20;100140.16;;;12.49;100.00
3434;BME280;1730;41.932;25.548;2024-03-02T10:05:47;100142.75;;;12.41;100.00
3434;BME280;1730;41.932;25.548;2024-03-02T10:08:12;99995.03;;;11.55;100.00
3434;BME280;1730;41.932;25.548;2024-03-02T10:10:39;99995.75;;;11.38;100.00
3434;BME280;1730;41.932;25.548;2024-03-02T10:13:10;100154.59;;;12.11;100.00
3434;BME280;1730;41.932;25.548;2024-03-02T10:15:37;100160.72;;;11.85;100.00
3434;BME280;1730;41.932;25.548;2024-03-02T10:18:04;99948.09;;;10.41;100.00
3434;BME280;1730;41.932;25.548;2024-03-02T10:20:29;100088.09;;;11.13;100.00
3434;BME280;1730;41.932;25.548;2024-03-02T10:22:56;100265.94;;;11.77;100.00
3434;BME280;1730;41.932;25.548;2024-03-02T10:25:34;100241.22;;;11.91;100.00
3434;BME280;1730;41.932;25.548;2024-03-02T10:28:00;100139.72;;;11.39;100.00
3434;BME280;1730;41.932;25.548;2024-03-02T10:30:29;100237.50;;;11.82;100.00
3434;BME280;1730;41.932;25.548;2024-03-02T10:32:55;100228.56;;;11.91;100.00
3434;BME280;1730;41.932;25.548;2024-03-02T10:35:22;100095.47;;;11.11;100.00
3434;BME280;1730;41.932;25.548;2024-03-02T10:37:49;100102.91;;;11.38;100.00
3434;BME280;1730;41.932;25.548;2024-03-02T10:40:15;99975.38;;;10.67;100.00
3434;BME280;1730;41.932;25.548;2024-03-02T10:42:43;100200.69;;;12.00;100.00
3434;BME280;1730;41.932;25.548;2024-03-02T10:45:11;100089.56;;;11.36;100.00
3434;BME280;1730;41.932;25.548;2024-03-02T10:47:39;100051.47;;;11.39;100.00
3434;BME280;1730;41.932;25.548;2024-03-02T10:50:07;100195.00;;;12.23;100.00
3434;BME280;1730;41.932;25.548;2024-03-02T10:52:36;100069.09;;;11.43;100.00
3434;BME280;1730;41.932;25.548;2024-03-02T10:55:06;100141.22;;;11.91;100.00
3434;BME280;1730;41.932;25.548;2024-03-02T10:57:41;100100.94;;;11.59;100.00
3434;BME280;1730;41.932;25.548;2024-03-02T11:00:11;100228.44;;;12.12;100.00
3434;BME280;1730;41.932;25.548;2024-03-02T11:02:50;99995.53;;;10.63;100.00
3434;BME280;1730;41.932;25.548;2024-03-02T11:05:23;100015.84;;;10.67;100.00
3434;BME280;1730;41.932;25.548;2024-03-02T11:07:57;100267.97;;;11.84;100.00
3434;BME280;1730;41.932;25.548;2024-03-02T11:10:23;100164.91;;;10.99;100.00
3434;BME280;1730;41.932;25.548;2024-03-02T11:12:56;100235.69;;;11.12;100.00
3434;BME280;1730;41.932;25.548;2024-03-02T11:15:24;100346.03;;;11.57;100.00
3434;BME280;1730;41.932;25.548;2024-03-02T11:17:52;100396.81;;;11.63;100.00
3434;BME280;1730;41.932;25.548;2024-03-02T11:20:19;100331.94;;;11.02;100.00
3434;BME280;1730;41.932;25.548;2024-03-02T11:22:45;100380.88;;;11.09;100.00
3434;BME280;1730;41.932;25.548;2024-03-02T11:25:27;100264.94;;;10.24;100.00
3434;BME280;1730;41.932;25.548;2024-03-02T11:27:59;100577.56;;;11.98;100.00
3434;BME280;1730;41.932;25.548;2024-03-02T11:32:57;100628.78;;;11.99;100.00
3434;BME280;1730;41.932;25.548;2024-03-02T11:35:29;100572.28;;;11.64;100.00
3434;BME280;1730;41.932;25.548;2024-03-02T11:37:55;100664.37;;;12.04;100.00
3434;BME280;1730;41.932;25.548;2024-03-02T11:40:28;100669.91;;;12.03;100.00
3434;BME280;1730;41.932;25.548;2024-03-02T11:42:56;100680.09;;;12.10;100.00
3434;BME280;1730;41.932;25.548;2024-03-02T11:45:31;100380.66;;;10.48;100.00
3434;BME280;1730;41.932;25.548;2024-03-02T11:47:59;100492.13;;;11.12;100.00
3434;BME280;1730;41.932;25.548;2024-03-02T11:50:47;100521.47;;;11.38;100.00
3434;BME280;1730;41.932;25.548;2024-03-02T11:53:14;100475.53;;;10.85;100.00
3434;BME280;1730;41.932;25.548;2024-03-02T11:55:41;100574.94;;;11.23;100.00
3434;BME280;1730;41.932;25.548;2024-03-02T11:58:07;100703.19;;;11.83;100.00
3434;BME280;1730;41.932;25.548;2024-03-02T12:00:33;100662.97;;;11.46;100.00
3434;BME280;1730;41.932;25.548;2024-03-02T12:03:06;100727.63;;;11.81;100.00
3434;BME280;1730;41.932;25.548;2024-03-02T12:05:31;100448.97;;;10.15;100.00
3434;BME280;1730;41.932;25.548;2024-03-02T12:07:59;100802.44;;;11.69;100.00
3434;BME280;1730;41.932;25.548;2024-03-02T12:10:28;100779.84;;;11.70;100.00
3434;BME280;1730;41.932;25.548;2024-03-02T12:13:01;100752.34;;;11.65;100.00
3434;BME280;1730;41.932;25.548;2024-03-02T12:15:28;100798.25;;;11.88;100.00
3434;BME280;1730;41.932;25.548;2024-03-02T12:17:55;100803.16;;;11.94;100.00
3434;BME280;1730;41.932;25.548;2024-03-02T12:20:22;100641.22;;;10.94;100.00
3434;BME280;1730;41.932;25.548;2024-03-02T12:22:50;100813.34;;;12.01;100.00
3434;BME280;1730;41.932;25.548;2024-03-02T12:25:19;100489.34;;;9.93;100.00
3434;BME280;1730;41.932;25.548;2024-03-02T12:27:45;100786.22;;;11.81;100.00
3434;BME280;1730;41.932;25.548;2024-03-02T12:30:12;100787.56;;;11.64;100.00
3434;BME280;1730;41.932;25.548;2024-03-02T12:32:50;100723.78;;;11.29;100.00
3434;BME280;1730;41.932;25.548;2024-03-02T12:35:34;100840.87;;;12.06;100.00
3434;BME280;1730;41.932;25.548;2024-03-02T12:38:10;100809.44;;;11.83;100.00
3434;BME280;1730;41.932;25.548;2024-03-02T12:40:39;100652.38;;;11.11;100.00
3434;BME280;1730;41.932;25.548;2024-03-02T12:43:05;100797.88;;;11.92;100.00
3434;BME280;1730;41.932;25.548;2024-03-02T12:45:32;100788.16;;;11.90;100.00
3434;BME280;1730;41.932;25.548;2024-03-02T12:48:00;100468.16;;;9.88;100.00
3434;BME280;1730;41.932;25.548;2024-03-02T12:50:27;100755.41;;;11.61;100.00
3434;BME280;1730;41.932;25.548;2024-03-02T12:52:55;100634.38;;;10.67;100.00
3434;BME280;1730;41.932;25.548;2024-03-02T12:55:25;100889.00;;;11.68;100.00
3434;BME280;1730;41.932;25.548;2024-03-02T12:57:56;100878.19;;;12.12;100.00
3434;BME280;1730;41.932;25.548;2024-03-02T13:00:28;100887.78;;;12.16;100.00